Metar Cercanos

 

LEPA - Palma De Mallorc, Spain
Distance from station: ONO 38km
Actualización: Tue, 03-Aug-2021 9:00am CEST
Few Clouds
Few Clouds
 Viento del ENE
Viento: ENE 13 km/h
Temperatura: 25°C
Rocío: 15°C
Humedad: 54%
Barómetro: 1016 hPa
Clouds: Few Clouds
Visibility: 10 km
Cloud details: Few Clouds 762 m
2021/08/03 07:00 LEPA 030700Z 06007KT 9999 FEW025 25/15 Q1016 NOSIG
LEMH - Mahon/Menorca Is, Spain
Distance from station: ENE 105km
Actualización: Tue, 03-Aug-2021 9:00am CEST
Despejado
Despejado
 Viento del NE
Viento: NE 24 km/h
Temperatura: 25°C
Rocío: 16°C
Humedad: 57%
Barómetro: 1016 hPa
Resumen: Despejado
Visibility: greater than 10 km
2021/08/03 07:00 LEMH 030700Z 05013KT CAVOK 25/16 Q1016
 
LEIB - Ibiza/Es Codola, Spain
Distance from station: OSO 165km
Actualización: Tue, 03-Aug-2021 9:00am CEST
Despejado
Despejado
 Viento del NE
Viento: NE 13 km/h
Temperatura: 26°C
Rocío: 18°C
Humedad: 61%
Barómetro: 1016 hPa
Resumen: Despejado
Visibility: greater than 10 km
2021/08/03 07:00 LEIB 030700Z 05007KT 020V080 CAVOK 26/18 Q1016 NOSIG
LEBL - Barcelona Airpor, Spain
Distance from station: NNO 225km
Actualización: Tue, 03-Aug-2021 9:00am CEST
Few Clouds
Few Clouds
 Viento del NO
Viento: NO 13 km/h
Temperatura: 23°C
Rocío: 18°C
Humedad: 74%
Barómetro: 1016 hPa
Clouds: Few Clouds
Visibility: 10 km
Cloud details: Few Clouds 762 m
2021/08/03 07:00 LEBL 030700Z 32007KT 270V340 9999 FEW025 23/18 Q1016 NOSIG
 
LEVC - Valencia (civ/Mi, Spain
Distance from station: NO 188km
Actualización: Tue, 03-Aug-2021 9:00am CEST
Few Clouds
Few Clouds
 Viento del NO
Viento: NO 9 km/h
Temperatura: 23°C
Rocío: 17°C
Humedad: 69%
Barómetro: 1017 hPa
Clouds: Few Clouds
Visibility: 10 km
Cloud details: Few Clouds 610 m
2021/08/03 07:00 LEVC 030700Z 31005KT 280V340 9999 FEW020 23/17 Q1017 NOSIG
LEGE - Gerona/Costa Bra, Spain
Distance from station: N 276km
Actualización: Tue, 03-Aug-2021 9:00am CEST
Despejado
Despejado
 Viento del varies
Viento: varies 4 km/h
Temperatura: 20°C
Rocío: 18°C
Humedad: 88%
Barómetro: 1017 hPa
Resumen: Despejado
Visibility: greater than 10 km
2021/08/03 07:00 LEGE 030700Z VRB02KT CAVOK 20/18 Q1017
 
LEAL - Alicante/El Alte, Spain
Distance from station: OSO 344km
Actualización: Tue, 03-Aug-2021 9:00am CEST
Few Clouds
Few Clouds
 Viento del varies
Viento: varies 2 km/h
Temperatura: 24°C
Rocío: 18°C
Humedad: 69%
Barómetro: 1016 hPa
Clouds: Few Clouds
Visibility: 10 km
Cloud details: Few Clouds 762 m
2021/08/03 07:00 LEAL 030700Z VRB01KT 9999 FEW025 24/18 Q1016 NOSIG
LEAM - Almeria Airport, Spain
Distance from station: SSO 56km
Actualización: Tue, 03-Aug-2021 9:00am CEST
Few Clouds
Few Clouds
 Viento del ENE
Viento: ENE 6 km/h
Temperatura: 25°C
Rocío: 20°C
Humedad: 74%
Barómetro: 1016 hPa
Clouds: Few Clouds
Visibility: 10 km
Cloud details: Few Clouds 305 m
2021/08/03 07:00 LEAM 030700Z 07003KT 030V140 9999 FEW010 25/20 Q1016
 
LEZG - Zaragoza (mil/Ci, Spain
Distance from station: NO 431km
Actualización: Tue, 03-Aug-2021 9:00am CEST
Despejado
Despejado
 Viento del O
Viento: O 13 km/h
Temperatura: 19°C
Rocío: 12°C
Humedad: 64%
Barómetro: 1018 hPa
Resumen: Despejado
Visibility: greater than 10 km
2021/08/03 07:00 LEZG 030700Z 28007KT 250V320 CAVOK 19/12 Q1018
LEMD - Madrid/Barajas, Spain
Distance from station: ONO 234km
Actualización: Tue, 03-Aug-2021 9:00am CEST
Despejado
Despejado
 Viento del N
Viento: N 4 km/h
Temperatura: 19°C
Rocío: 9°C
Humedad: 52%
Barómetro: 1019 hPa
Resumen: Despejado
Visibility: greater than 10 km
2021/08/03 07:00 LEMD 030700Z 36002KT CAVOK 19/09 Q1019 NOSIG
 
LEGR - Granada Airport, Spain
Distance from station: OSO 62km
Actualización: Tue, 03-Aug-2021 9:00am CEST
Despejado
Despejado
 Viento del NO
Viento: NO 2 km/h
Temperatura: 18°C
Rocío: 12°C
Humedad: 68%
Barómetro: 1019 hPa
Resumen: Despejado
Visibility: greater than 10 km
2021/08/03 07:00 LEGR 030700Z 31001KT CAVOK 18/12 Q1019
LEMG - Malaga (civ/Mil), Spain
Distance from station: OSO 227km
Actualización: Tue, 03-Aug-2021 9:00am CEST
Few Clouds
Few Clouds
 Viento del ONO
Viento: ONO 13 km/h
Temperatura: 23°C
Rocío: 17°C
Humedad: 69%
Barómetro: 1016 hPa
Clouds: Few Clouds
Visibility: 10 km
Cloud details: Few Clouds 914 m
2021/08/03 07:00 LEMG 030700Z 30007KT 9999 FEW030 23/17 Q1016 NOSIG
 
LEZL - Sevilla (civ/Mil, Spain
Distance from station: S 318km
Actualización: Tue, 03-Aug-2021 9:00am CEST
Despejado
Despejado
 Viento del E
Viento: E 6 km/h
Temperatura: 22°C
Rocío: 16°C
Humedad: 69%
Barómetro: 1016 hPa
Resumen: Despejado
Visibility: greater than 10 km
2021/08/03 07:00 LEZL 030700Z 08003KT CAVOK 22/16 Q1016 NOSIG
LEVT - Vitoria, Spain
Distance from station: NO 226km
Actualización: Tue, 03-Aug-2021 9:00am CEST
Niebla, Cubierto
Niebla, Cubierto
 Viento del calm
Viento: Calma
Temperatura: 12°C
Rocío: 12°C
Humedad: 100%
Barómetro: 1019 hPa
Resumen: Niebla
Clouds: Cubierto
Visibility: 1 km
Cloud details: Cubierto 61 m
2021/08/03 07:00 LEVT 030700Z 00000KT 0900 R04/1900N R22/1300U FG OVC002 12/12 Q1019
 
LEBB - Bilbao/Sondica, Spain
Distance from station: NNO 235km
Actualización: Tue, 03-Aug-2021 9:00am CEST
Despejado
Despejado
 Viento del SE
Viento: SE 6 km/h
Temperatura: 16°C
Rocío: 15°C
Humedad: 94%
Barómetro: 1018 hPa
Resumen: Despejado
Visibility: greater than 10 km
2021/08/03 07:00 LEBB 030700Z 13003KT 080V160 CAVOK 16/15 Q1018 NOSIG
LESO - San Sebastian/Fu, Spain
Distance from station: N 231km
Actualización: Tue, 03-Aug-2021 9:00am CEST
Few Clouds
Few Clouds
 Viento del S
Viento: S 6 km/h
Temperatura: 18°C
Rocío: 15°C
Humedad: 83%
Barómetro: 1018 hPa
Clouds: Few Clouds
Visibility: 10 km
Cloud details: Few Clouds 914 m
2021/08/03 07:00 LESO 030700Z 18003KT 9999 FEW030 18/15 Q1018
 
LEVD - Valladolid(Mil/C, Spain
Distance from station: ONO 239km
Actualización: Tue, 03-Aug-2021 9:00am CEST
Despejado
Despejado
 Viento del varies
Viento: varies 4 km/h
Temperatura: 15°C
Rocío: 11°C
Humedad: 77%
Barómetro: 1019 hPa
Resumen: Despejado
Visibility: greater than 10 km
2021/08/03 07:00 LEVD 030700Z VRB02KT CAVOK 15/11 Q1019
LESA - Salamanca (civ/M, Spain
Distance from station: ONO 349km
Actualización: Tue, 03-Aug-2021 9:00am CEST
Despejado
Despejado
 Viento del varies
Viento: varies 2 km/h
Temperatura: 14°C
Rocío: 12°C
Humedad: 88%
Barómetro: 1019 hPa
Resumen: Despejado
Visibility: greater than 10 km
2021/08/03 07:00 LESA 030700Z VRB01KT CAVOK 14/12 Q1019
 
LEXJ - Santander/Paraya, Spain
Distance from station: NNO 247km
Actualización: Tue, 03-Aug-2021 9:00am CEST
Few Clouds
Few Clouds
 Viento del calm
Viento: Calma
Temperatura: 18°C
Rocío: 16°C
Humedad: 88%
Barómetro: 1017 hPa
Clouds: Few Clouds
Visibility: 10 km
Cloud details: Few Clouds 853 m
2021/08/03 07:00 LEXJ 030700Z 00000KT 9999 FEW028 18/16 Q1017
LEAS - Asturias/Aviles, Spain
Distance from station: NO 214km
Actualización: Tue, 03-Aug-2021 9:00am CEST
Parcialmente nuboso
Parcialmente nuboso
 Viento del OSO
Viento: OSO 9 km/h
Temperatura: 18°C
Rocío: 14°C
Humedad: 78%
Barómetro: 1018 hPa
Clouds: Parcialmente nuboso
Visibility: 10 km
Cloud details: Parcialmente nuboso 914 m
2021/08/03 07:00 LEAS 030700Z 25005KT 9999 SCT030 18/14 Q1018 NOSIG
 
LECO - La Coruna/Alvedr, Spain
Distance from station: ONO 222km
Actualización: Tue, 03-Aug-2021 9:00am CEST
Parcialmente nuboso
Parcialmente nuboso
 Viento del S
Viento: S 9 km/h
Temperatura: 13°C
Rocío: 13°C
Humedad: 100%
Barómetro: 1019 hPa
Clouds: Parcialmente nuboso
Visibility: 10 km
Cloud details: Parcialmente nuboso 823 m
2021/08/03 07:00 LECO 030700Z 17005KT 130V190 9999 SCT027 13/13 Q1019 NOSIG
LEVX - Vigo/Peinador, Spain
Distance from station: O 214km
Actualización: Tue, 03-Aug-2021 9:00am CEST
Despejado
Despejado
 Viento del varies
Viento: varies 2 km/h
Temperatura: 15°C
Rocío: 13°C
Humedad: 88%
Barómetro: 1019 hPa
Resumen: Despejado
Visibility: greater than 10 km
2021/08/03 07:00 LEVX 030700Z VRB01KT CAVOK 15/13 Q1019 NOSIG